Time;durP1;ratioP1;P1;durP2;ratioP2;P2;SDS_P1;SDS_P2;PMS_P1;PMS_P2;Temp;Humidity;BMP_temperature;BMP_pressure;BME280_temperature;BME280_humidity;BME280_pressure;Samples;Min_cycle;Max_cycle;Signal;HPM_P1;HPM_P2
2022/05/11 00:01:27;;;;;;;2.15;1.33;;;23.80;39.60;;;;;;5137242;28;20031;-37
2022/05/11 00:03:53;;;;;;;2.88;1.02;;;23.80;39.60;;;;;;5135634;28;20068;-39
2022/05/11 00:06:19;;;;;;;1.33;1.08;;;23.80;39.60;;;;;;5135638;28;20019;-40
2022/05/11 00:08:45;;;;;;;1.40;0.90;;;23.80;39.50;;;;;;5137284;27;20026;-41
2022/05/11 00:11:11;;;;;;;1.67;1.10;;;23.80;39.60;;;;;;5137492;28;20047;-39
2022/05/11 00:13:37;;;;;;;1.75;1.05;;;23.80;39.60;;;;;;5137487;28;20025;-38
2022/05/11 00:16:03;;;;;;;1.17;0.90;;;23.80;39.60;;;;;;5138005;28;20086;-38
2022/05/11 00:18:30;;;;;;;2.03;1.20;;;23.80;39.70;;;;;;5137618;27;20045;-41
2022/05/11 00:20:56;;;;;;;2.28;1.10;;;23.80;39.60;;;;;;5136730;27;20485;-38
2022/05/11 00:23:22;;;;;;;1.25;1.00;;;23.80;39.70;;;;;;5137900;27;20027;-38
2022/05/11 00:25:48;;;;;;;1.38;1.02;;;23.80;39.70;;;;;;5141411;27;20537;-38
2022/05/11 00:28:14;;;;;;;1.70;1.02;;;23.80;39.70;;;;;;5140303;27;20042;-37
2022/05/11 00:30:40;;;;;;;1.15;0.90;;;23.80;39.70;;;;;;5141467;27;20049;-38
2022/05/11 00:33:06;;;;;;;1.33;0.90;;;23.80;39.80;;;;;;5142309;27;20019;-39
2022/05/11 00:35:33;;;;;;;1.40;1.10;;;23.70;39.80;;;;;;5141403;27;20011;-38
2022/05/11 00:37:58;;;;;;;1.83;1.00;;;23.70;39.80;;;;;;5140381;27;20072;-38
2022/05/11 00:40:24;;;;;;;1.67;1.02;;;23.80;39.90;;;;;;5139853;27;20015;-39
2022/05/11 00:42:50;;;;;;;1.75;1.20;;;23.80;39.90;;;;;;5142240;27;20011;-38
2022/05/11 00:45:16;;;;;;;2.00;1.00;;;23.70;39.80;;;;;;5140658;27;20007;-37
2022/05/11 00:47:49;;;;;;;1.67;1.10;;;23.70;39.80;;;;;;5140284;27;20458;-38
2022/05/11 00:50:19;;;;;;;2.28;1.00;;;23.70;39.90;;;;;;5140890;27;20098;-38
2022/05/11 00:52:47;;;;;;;1.85;1.10;;;23.70;39.90;;;;;;5139536;27;20079;-37
2022/05/11 00:55:34;;;;;;;1.70;0.93;;;23.80;40.00;;;;;;5140395;27;20034;-39
2022/05/11 00:58:09;;;;;;;1.85;1.13;;;23.70;39.90;;;;;;5139025;27;20019;-38
2022/05/11 01:00:35;;;;;;;3.08;1.10;;;23.80;40.00;;;;;;5139392;27;20023;-39
2022/05/11 01:03:09;;;;;;;2.30;1.15;;;23.70;39.90;;;;;;5137718;27;20092;-38
2022/05/11 01:05:35;;;;;;;1.92;0.93;;;23.80;40.00;;;;;;5103937;27;20031;-37
2022/05/11 01:08:01;;;;;;;1.75;1.00;;;23.70;39.90;;;;;;5136861;27;20022;-37
2022/05/11 01:10:28;;;;;;;2.90;1.10;;;23.80;40.00;;;;;;5137843;27;20043;-38
2022/05/11 01:12:57;;;;;;;1.77;1.00;;;23.80;40.00;;;;;;5119662;27;20018;-38
2022/05/11 01:15:23;;;;;;;1.45;1.10;;;23.70;40.00;;;;;;5138035;27;20015;-38
2022/05/11 01:17:49;;;;;;;1.38;1.10;;;23.70;40.00;;;;;;5137201;27;20016;-38
2022/05/11 01:20:19;;;;;;;3.13;1.20;;;23.70;40.10;;;;;;5138355;27;20534;-38
2022/05/11 01:23:02;;;;;;;1.45;1.00;;;23.70;40.10;;;;;;5137564;27;20039;-38
2022/05/11 01:25:28;;;;;;;1.38;1.15;;;23.70;40.00;;;;;;5138397;27;20042;-38
2022/05/11 01:28:21;;;;;;;1.00;0.90;;;23.70;40.10;;;;;;5138707;27;20015;-38
2022/05/11 01:30:51;;;;;;;3.10;1.00;;;23.70;40.10;;;;;;5132156;27;20027;-37
2022/05/11 01:33:19;;;;;;;1.80;1.15;;;23.70;40.10;;;;;;5139400;27;20034;-39
2022/05/11 01:36:23;;;;;;;1.08;0.90;;;23.70;40.10;;;;;;5138416;27;20007;-37
2022/05/11 01:38:53;;;;;;;3.58;1.10;;;23.70;40.20;;;;;;5140200;27;20019;-38
2022/05/11 01:41:34;;;;;;;1.50;1.10;;;23.70;40.10;;;;;;5139600;27;20072;-40
2022/05/11 01:44:01;;;;;;;1.27;1.05;;;23.70;40.20;;;;;;5140695;27;20011;-42
2022/05/11 01:46:27;;;;;;;1.58;1.05;;;23.70;40.20;;;;;;5140140;27;20042;-38
2022/05/11 01:48:53;;;;;;;1.80;1.20;;;23.70;40.20;;;;;;5139385;27;20084;-38
2022/05/11 01:51:19;;;;;;;1.42;1.10;;;23.70;40.20;;;;;;5138036;27;20449;-39
2022/05/11 01:53:45;;;;;;;1.70;0.90;;;23.70;40.20;;;;;;5119447;27;20466;-38
2022/05/11 01:56:14;;;;;;;1.25;0.95;;;23.70;40.20;;;;;;5136640;27;20378;-38
2022/05/11 01:58:40;;;;;;;1.70;0.95;;;23.70;40.20;;;;;;5138909;27;20030;-40
2022/05/11 02:01:06;;;;;;;2.28;1.10;;;23.70;40.20;;;;;;5138261;27;20019;-39
2022/05/11 02:03:32;;;;;;;1.90;1.27;;;23.70;40.20;;;;;;5137085;27;20018;-38
2022/05/11 02:08:43;;;;;;;2.35;0.90;;;23.60;40.20;;;;;;5138064;27;20446;-39
2022/05/11 02:11:10;;;;;;;1.98;0.90;;;23.70;40.30;;;;;;5136490;27;20026;-44
2022/05/11 02:13:36;;;;;;;1.55;1.00;;;23.60;40.20;;;;;;5136853;27;20031;-38
2022/05/11 02:16:01;;;;;;;2.03;1.08;;;23.60;40.30;;;;;;5136810;27;20072;-38
2022/05/11 02:18:27;;;;;;;1.35;1.05;;;23.60;40.30;;;;;;5136433;27;20019;-41
2022/05/11 02:20:53;;;;;;;2.47;1.08;;;23.60;40.30;;;;;;5136954;27;20043;-38
2022/05/11 02:23:20;;;;;;;1.55;1.10;;;23.60;40.30;;;;;;5137143;27;20019;-39
2022/05/11 02:25:46;;;;;;;1.17;1.00;;;23.70;40.30;;;;;;5136705;27;20047;-39
2022/05/11 02:28:12;;;;;;;1.48;1.00;;;23.70;40.40;;;;;;5136313;27;20027;-38
2022/05/11 02:30:38;;;;;;;1.50;0.95;;;23.60;40.30;;;;;;5136804;27;20026;-39
2022/05/11 02:33:03;;;;;;;1.48;0.93;;;23.60;40.40;;;;;;5136582;27;20022;-39
2022/05/11 02:35:29;;;;;;;1.45;0.90;;;23.60;40.40;;;;;;5136357;27;20067;-38
2022/05/11 02:37:59;;;;;;;2.20;1.30;;;23.60;40.40;;;;;;5135911;27;20038;-40
2022/05/11 02:40:36;;;;;;;1.83;1.00;;;23.60;40.50;;;;;;5136861;27;20003;-40
2022/05/11 02:43:02;;;;;;;2.25;1.00;;;23.60;40.50;;;;;;5138663;27;20047;-40
2022/05/11 02:45:28;;;;;;;2.45;1.10;;;23.60;40.50;;;;;;5137236;27;20018;-41
2022/05/11 02:47:54;;;;;;;1.52;0.93;;;23.60;40.50;;;;;;5136976;27;20019;-45
2022/05/11 02:50:28;;;;;;;2.53;1.05;;;23.60;40.50;;;;;;5118927;27;20023;-39
2022/05/11 02:52:53;;;;;;;1.17;0.95;;;23.60;40.50;;;;;;5137037;27;20016;-39
2022/05/11 02:55:19;;;;;;;1.55;1.00;;;23.60;40.60;;;;;;5136798;27;20064;-38
2022/05/11 02:57:45;;;;;;;1.77;1.00;;;23.60;40.60;;;;;;5136146;27;20070;-38
2022/05/11 03:00:13;;;;;;;1.92;0.80;;;23.60;40.60;;;;;;5136410;27;20082;-40
2022/05/11 03:02:39;;;;;;;1.83;0.90;;;23.60;40.60;;;;;;5135296;27;20018;-38
2022/05/11 03:05:05;;;;;;;2.53;1.00;;;23.60;40.60;;;;;;5135636;27;20466;-38
2022/05/11 03:07:32;;;;;;;1.55;0.90;;;23.60;40.70;;;;;;5134336;27;20026;-38
2022/05/11 03:09:58;;;;;;;2.90;1.20;;;23.60;40.70;;;;;;5134654;27;20106;-39
2022/05/11 03:12:24;;;;;;;2.08;0.93;;;23.60;40.70;;;;;;5135214;27;20110;-37
2022/05/11 03:14:53;;;;;;;1.50;0.90;;;23.60;40.70;;;;;;5135153;27;20007;-38
2022/05/11 03:17:19;;;;;;;2.20;0.93;;;23.60;40.70;;;;;;5136965;27;20007;-38
2022/05/11 03:19:45;;;;;;;1.45;0.88;;;23.60;40.80;;;;;;5136735;27;20015;-38
2022/05/11 03:22:11;;;;;;;1.35;0.90;;;23.60;40.80;;;;;;5134819;27;20405;-38
2022/05/11 03:24:38;;;;;;;1.30;0.90;;;23.60;40.80;;;;;;5134956;27;20029;-39
2022/05/11 03:27:04;;;;;;;1.13;0.98;;;23.60;40.80;;;;;;5136046;27;20023;-42
2022/05/11 03:29:30;;;;;;;1.25;1.00;;;23.60;40.90;;;;;;5135219;27;20473;-40
2022/05/11 03:34:40;;;;;;;1.00;0.90;;;23.60;40.90;;;;;;5135896;27;20049;-40
2022/05/11 03:37:08;;;;;;;1.55;0.90;;;23.60;40.90;;;;;;5135917;27;20018;-38
2022/05/11 03:39:34;;;;;;;1.25;0.90;;;23.60;41.00;;;;;;5137400;27;20500;-39
2022/05/11 03:42:00;;;;;;;1.60;1.02;;;23.60;40.90;;;;;;5137851;27;20016;-41
2022/05/11 03:44:26;;;;;;;2.22;0.90;;;23.50;40.90;;;;;;5138189;27;20026;-44
2022/05/11 03:46:53;;;;;;;2.50;1.13;;;23.60;41.60;;;;;;5137674;27;20015;-41
2022/05/11 03:49:18;;;;;;;2.00;1.00;;;23.60;41.10;;;;;;5138003;28;20500;-41
2022/05/11 03:51:44;;;;;;;1.65;1.02;;;23.50;41.00;;;;;;5135359;28;20011;-39
2022/05/11 03:54:10;;;;;;;2.35;1.17;;;23.60;41.10;;;;;;5134412;28;20088;-37
2022/05/11 03:56:36;;;;;;;1.75;1.00;;;23.50;41.10;;;;;;5134562;28;20019;-41
2022/05/11 03:59:02;;;;;;;1.17;1.00;;;23.50;41.10;;;;;;5136818;27;20023;-42
2022/05/11 04:01:28;;;;;;;2.40;1.00;;;23.50;41.10;;;;;;5141005;27;20469;-44
2022/05/11 04:03:54;;;;;;;1.48;0.95;;;23.50;41.10;;;;;;5140750;27;20026;-42
2022/05/11 04:06:20;;;;;;;1.65;1.10;;;23.50;41.20;;;;;;5142435;27;20445;-40
2022/05/11 04:08:47;;;;;;;1.83;1.10;;;23.60;41.20;;;;;;5140523;27;20027;-39
2022/05/11 04:11:13;;;;;;;1.83;1.20;;;23.50;41.20;;;;;;5140992;27;20015;-40
2022/05/11 04:13:42;;;;;;;1.30;0.90;;;23.50;41.20;;;;;;5139481;27;20016;-40
2022/05/11 04:16:08;;;;;;;1.73;1.10;;;23.50;41.20;;;;;;5139658;27;20022;-40
2022/05/11 04:18:35;;;;;;;1.27;1.05;;;23.50;41.20;;;;;;5139395;27;20027;-39
2022/05/11 04:21:01;;;;;;;1.77;1.00;;;23.50;41.30;;;;;;5139394;27;20408;-41
2022/05/11 04:23:27;;;;;;;1.15;0.90;;;23.50;41.20;;;;;;5139364;27;20098;-39
2022/05/11 04:25:54;;;;;;;1.25;1.00;;;23.50;41.20;;;;;;5138329;27;20042;-42
2022/05/11 04:28:20;;;;;;;1.00;0.90;;;23.60;41.10;;;;;;5139365;27;20031;-39
2022/05/11 04:30:46;;;;;;;1.88;1.08;;;23.70;40.90;;;;;;5138603;27;20011;-44
2022/05/11 04:33:12;;;;;;;1.27;0.93;;;23.80;40.80;;;;;;5138928;27;20114;-41
2022/05/11 04:35:38;;;;;;;1.63;1.00;;;23.80;40.80;;;;;;5140589;27;20072;-39
2022/05/11 04:38:04;;;;;;;1.45;1.10;;;23.90;40.70;;;;;;5122376;27;20023;-41
2022/05/11 04:40:30;;;;;;;1.83;1.17;;;24.00;40.50;;;;;;5141187;27;20772;-40
2022/05/11 04:42:57;;;;;;;1.40;0.90;;;23.90;40.40;;;;;;5140837;27;20046;-43
2022/05/11 04:45:23;;;;;;;1.17;0.90;;;24.00;40.30;;;;;;5142027;27;20011;-42
2022/05/11 04:47:49;;;;;;;1.20;0.90;;;24.10;40.20;;;;;;5140764;27;20026;-41
2022/05/11 04:50:16;;;;;;;1.90;0.98;;;24.10;40.00;;;;;;5139273;27;20019;-41
2022/05/11 04:52:41;;;;;;;2.10;1.10;;;24.20;39.80;;;;;;5138637;27;20019;-41
2022/05/11 04:55:09;;;;;;;1.42;0.90;;;24.30;39.70;;;;;;5139614;27;20008;-40
2022/05/11 04:57:34;;;;;;;2.05;0.90;;;24.40;39.60;;;;;;5140075;27;20015;-42
2022/05/11 05:00:01;;;;;;;1.15;0.85;;;24.40;39.40;;;;;;5140004;27;20110;-40
2022/05/11 05:02:30;;;;;;;2.45;1.08;;;24.50;39.40;;;;;;5138858;27;20478;-39
2022/05/11 05:05:00;;;;;;;2.20;1.05;;;24.40;39.30;;;;;;5138085;27;20513;-42
2022/05/11 05:07:25;;;;;;;1.80;1.17;;;24.50;39.40;;;;;;5140099;27;20015;-43
2022/05/11 05:09:51;;;;;;;1.48;0.93;;;24.50;39.30;;;;;;5138842;27;20435;-41
2022/05/11 05:12:16;;;;;;;2.13;0.90;;;24.60;39.20;;;;;;5138898;27;20011;-39
2022/05/11 05:14:42;;;;;;;2.15;1.00;;;24.60;39.10;;;;;;5138719;27;20046;-40
2022/05/11 05:17:11;;;;;;;1.67;1.00;;;24.70;39.00;;;;;;5139733;27;20037;-42
2022/05/11 05:19:38;;;;;;;1.90;1.10;;;24.70;38.90;;;;;;5139812;27;20011;-43
2022/05/11 05:22:04;;;;;;;1.42;0.80;;;24.70;38.90;;;;;;5139992;27;20035;-39
2022/05/11 05:24:30;;;;;;;1.75;1.10;;;24.70;39.30;;;;;;5139194;27;20020;-45
2022/05/11 05:26:56;;;;;;;1.83;1.00;;;24.70;38.70;;;;;;5122739;27;20011;-43
2022/05/11 05:32:07;;;;;;;1.98;0.85;;;24.80;38.70;;;;;;5140024;27;20448;-41
2022/05/11 05:34:33;;;;;;;4.13;1.33;;;24.80;38.50;;;;;;5141609;27;20019;-41
2022/05/11 05:36:59;;;;;;;1.90;0.90;;;24.80;38.60;;;;;;5142250;27;20537;-43
2022/05/11 05:39:26;;;;;;;3.05;1.05;;;24.80;38.50;;;;;;5140250;27;20110;-40
2022/05/11 05:41:52;;;;;;;2.20;1.00;;;24.80;38.50;;;;;;5139574;27;20454;-39
2022/05/11 05:44:21;;;;;;;2.30;0.85;;;24.80;38.50;;;;;;5137648;27;20042;-40
2022/05/11 05:46:47;;;;;;;1.77;1.02;;;24.90;38.30;;;;;;5137405;27;20050;-39
2022/05/11 05:49:13;;;;;;;1.80;1.02;;;25.00;38.30;;;;;;5119223;27;20053;-38
2022/05/11 05:51:39;;;;;;;1.80;0.90;;;25.00;38.00;;;;;;5119663;27;20132;-39
2022/05/11 05:54:06;;;;;;;2.72;1.10;;;25.10;37.90;;;;;;5136802;27;20019;-37
2022/05/11 05:56:32;;;;;;;2.38;1.10;;;25.10;37.90;;;;;;5137056;27;20019;-39
2022/05/11 05:59:03;;;;;;;1.63;0.88;;;25.20;38.30;;;;;;5136284;27;20461;-36
2022/05/11 06:01:29;;;;;;;1.75;1.00;;;25.20;37.70;;;;;;5135342;27;20046;-36
2022/05/11 06:03:57;;;;;;;1.67;1.00;;;25.20;37.70;;;;;;5136208;27;20090;-40
2022/05/11 06:06:23;;;;;;;2.33;1.10;;;25.20;37.50;;;;;;5136137;27;20348;-37
2022/05/11 06:08:49;;;;;;;1.98;1.00;;;25.20;37.50;;;;;;5138640;27;20023;-37
2022/05/11 06:11:15;;;;;;;1.88;0.95;;;25.20;37.70;;;;;;5117035;27;20127;-37
2022/05/11 06:13:45;;;;;;;2.10;0.80;;;25.20;37.70;;;;;;5134917;27;20019;-38
2022/05/11 06:16:12;;;;;;;;;;;25.10;37.50;;;;;;5134633;27;20019;-37
2022/05/11 06:18:43;;;;;;;2.42;1.10;;;25.00;37.70;;;;;;5133836;27;19945;-37
2022/05/11 06:21:10;;;;;;;8.55;1.60;;;24.80;37.70;;;;;;5131033;27;20051;-37
2022/05/11 06:23:37;;;;;;;20.35;1.98;;;24.40;38.40;;;;;;5115046;27;20023;-38
2022/05/11 06:26:03;;;;;;;24.98;1.90;;;23.60;40.50;;;;;;5133950;27;20030;-37
2022/05/11 06:28:28;;;;;;;20.98;2.00;;;23.50;40.90;;;;;;5135062;27;20541;-37
2022/05/11 06:30:54;;;;;;;10.20;1.63;;;23.70;40.20;;;;;;5134987;27;20007;-37
2022/05/11 06:33:21;;;;;;;16.23;2.30;;;23.70;39.50;;;;;;5134055;27;20412;-37
2022/05/11 06:35:47;;;;;;;12.70;1.92;;;23.90;38.70;;;;;;5116137;27;20007;-37
2022/05/11 06:38:12;;;;;;;11.93;1.50;;;24.00;38.50;;;;;;5133108;27;20023;-37
2022/05/11 06:40:38;;;;;;;10.70;1.70;;;24.10;38.50;;;;;;5134367;27;20015;-36
2022/05/11 06:43:05;;;;;;;8.70;1.95;;;24.10;37.80;;;;;;5134238;27;20015;-37
2022/05/11 06:45:30;;;;;;;11.02;1.42;;;24.20;37.70;;;;;;5134103;27;20035;-38
2022/05/11 06:47:56;;;;;;;10.52;1.20;;;24.30;37.90;;;;;;5134032;27;20076;-38
2022/05/11 06:50:24;;;;;;;7.90;1.23;;;24.40;37.50;;;;;;5132787;27;20019;-39
2022/05/11 06:52:53;;;;;;;7.50;1.70;;;24.40;37.50;;;;;;5133013;27;20120;-38
2022/05/11 07:00:48;;;;;;;6.00;1.13;;;24.40;37.00;;;;;;5134403;27;20349;-38
2022/05/11 07:03:14;;;;;;;7.43;1.27;;;24.30;37.10;;;;;;5134338;27;19999;-37
2022/05/11 07:05:41;;;;;;;8.82;1.23;;;24.30;37.10;;;;;;5133985;27;20544;-38
2022/05/11 07:08:07;;;;;;;9.20;1.58;;;24.50;37.10;;;;;;5134488;27;20030;-38
2022/05/11 07:10:37;;;;;;;7.28;1.15;;;24.60;37.10;;;;;;5133955;27;20548;-38
2022/05/11 07:13:04;;;;;;;15.93;1.90;;;24.70;36.80;;;;;;5133269;27;20449;-39
2022/05/11 07:15:30;;;;;;;15.05;1.75;;;24.50;36.40;;;;;;5131391;27;20015;-37
2022/05/11 07:17:59;;;;;;;10.35;1.85;;;23.80;37.10;;;;;;5130822;27;20071;-39
2022/05/11 07:20:33;;;;;;;11.85;1.80;;;23.10;38.50;;;;;;5132866;27;20083;-37
2022/05/11 07:23:02;;;;;;;13.10;1.60;;;22.80;38.70;;;;;;5132615;27;20441;-34
2022/05/11 07:25:28;;;;;;;11.13;2.00;;;22.80;38.80;;;;;;5133174;27;20012;-34
2022/05/11 07:27:54;;;;;;;12.63;1.70;;;23.00;39.10;;;;;;5133348;27;20034;-35
2022/05/11 07:30:23;;;;;;;12.30;1.75;;;23.00;38.60;;;;;;5132954;27;20046;-36
2022/05/11 07:32:49;;;;;;;15.52;1.70;;;23.20;38.50;;;;;;5132626;27;20019;-35
2022/05/11 07:35:15;;;;;;;10.52;1.77;;;23.30;37.90;;;;;;5131349;27;20012;-35
2022/05/11 07:37:41;;;;;;;8.82;1.70;;;23.40;38.20;;;;;;5133212;27;20015;-36
2022/05/11 07:40:07;;;;;;;16.70;2.28;;;23.10;38.00;;;;;;5132276;27;20011;-36
2022/05/11 07:42:33;;;;;;;9.77;1.77;;;23.10;37.90;;;;;;5130366;27;20051;-35
2022/05/11 07:44:59;;;;;;;17.30;1.63;;;23.00;37.80;;;;;;5133111;27;20018;-36
2022/05/11 07:47:25;;;;;;;7.68;1.35;;;22.90;38.20;;;;;;5131644;27;20079;-35
2022/05/11 07:49:50;;;;;;;8.18;1.35;;;22.80;38.90;;;;;;5131684;28;20072;-38
2022/05/11 07:52:16;;;;;;;8.00;1.58;;;23.10;38.10;;;;;;5133026;27;20064;-35
2022/05/11 07:54:42;;;;;;;6.57;1.40;;;23.10;37.30;;;;;;5132567;28;20011;-35
2022/05/11 07:59:56;;;;;;;15.40;1.90;;;23.00;37.70;;;;;;5132715;28;20099;-36
2022/05/11 08:02:30;;;;;;;11.43;1.70;;;22.70;38.50;;;;;;5131968;27;20042;-37
2022/05/11 08:05:09;;;;;;;20.92;2.13;;;22.50;39.10;;;;;;5131830;27;20105;-36
2022/05/11 08:07:38;;;;;;;22.92;1.85;;;22.60;39.30;;;;;;5116514;28;20008;-36
2022/05/11 08:10:08;;;;;;;31.52;3.92;;;22.60;40.30;;;;;;5133507;27;20026;-37
2022/05/11 08:12:34;;;;;;;17.20;1.97;;;22.50;40.70;;;;;;5132211;28;20526;-37
2022/05/11 08:15:00;;;;;;;25.35;3.38;;;22.60;40.50;;;;;;5133586;27;20252;-36
2022/05/11 08:17:31;;;;;;;23.73;2.17;;;22.80;39.70;;;;;;5113602;28;20019;-38
2022/05/11 08:19:59;;;;;;;28.17;2.58;;;22.80;40.40;;;;;;5113856;28;20095;-37
2022/05/11 08:22:26;;;;;;;28.60;2.63;;;22.80;40.70;;;;;;5132992;27;20145;-37
2022/05/11 08:24:51;;;;;;;23.95;3.03;;;22.80;41.20;;;;;;5131801;28;20007;-36
2022/05/11 08:27:20;;;;;;;22.95;2.17;;;22.70;41.40;;;;;;5133358;27;20019;-36
2022/05/11 08:35:16;;;;;;;25.40;2.83;;;22.80;41.00;;;;;;5132155;28;20046;-36
2022/05/11 08:37:42;;;;;;;27.90;2.70;;;22.60;40.90;;;;;;5131979;28;20050;-36
2022/05/11 08:40:11;;;;;;;14.35;1.80;;;22.60;41.10;;;;;;5132015;28;20016;-36
2022/05/11 08:42:39;;;;;;;22.90;2.00;;;22.70;41.30;;;;;;5133257;27;20023;-36
2022/05/11 08:45:06;;;;;;;19.83;1.95;;;22.60;40.90;;;;;;5135605;27;20035;-37
2022/05/11 08:47:47;;;;;;;23.83;1.92;;;22.70;41.30;;;;;;5119015;27;20047;-37
2022/05/11 08:50:21;;;;;;;13.80;1.52;;;22.90;40.80;;;;;;5136633;27;20461;-37
2022/05/11 08:52:52;;;;;;;11.90;1.45;;;22.90;40.60;;;;;;5119239;27;20035;-36
2022/05/11 08:55:32;;;;;;;15.98;1.83;;;23.20;40.20;;;;;;5137524;27;20106;-38
2022/05/11 08:58:06;;;;;;;;;;;23.00;40.50;;;;;;5136610;27;20039;-38
2022/05/11 09:00:32;;;;;;;7.32;1.40;;;23.20;40.00;;;;;;5135537;27;19907;-37
2022/05/11 09:03:06;;;;;;;14.27;1.52;;;23.20;39.90;;;;;;5136116;27;20015;-37
2022/05/11 09:05:32;;;;;;;10.55;1.35;;;23.10;40.60;;;;;;5118482;27;20015;-36
2022/05/11 09:07:59;;;;;;;8.10;1.60;;;23.30;40.40;;;;;;5099543;27;20076;-36
2022/05/11 09:10:36;;;;;;;11.20;1.90;;;23.10;40.80;;;;;;5117043;27;20095;-37
2022/05/11 09:13:09;;;;;;;13.63;1.95;;;23.10;40.50;;;;;;5136445;27;20030;-37
2022/05/11 09:15:53;;;;;;;14.20;2.28;;;23.30;40.20;;;;;;5119368;27;20071;-37
2022/05/11 09:18:32;;;;;;;10.35;1.38;;;23.80;39.40;;;;;;5138039;27;20015;-38
2022/05/11 09:21:34;;;;;;;11.38;1.40;;;24.10;38.50;;;;;;5136097;27;20129;-37
2022/05/11 09:24:18;;;;;;;14.82;1.70;;;24.40;37.90;;;;;;5132289;27;20031;-38
2022/05/11 09:26:46;;;;;;;11.82;1.58;;;24.70;37.30;;;;;;5137710;27;20007;-38
2022/05/11 09:29:21;;;;;;;11.15;2.13;;;24.80;36.90;;;;;;5139060;27;20114;-37
2022/05/11 09:31:51;;;;;;;13.35;1.48;;;25.00;36.60;;;;;;5137602;27;20011;-37
2022/05/11 09:34:26;;;;;;;11.35;1.25;;;25.20;36.30;;;;;;5138179;27;20079;-37
2022/05/11 09:36:53;;;;;;;13.15;2.00;;;25.30;36.10;;;;;;5137747;27;20007;-39
2022/05/11 09:39:18;;;;;;;7.15;1.42;;;25.40;35.90;;;;;;5117726;27;20117;-36
2022/05/11 09:41:51;;;;;;;8.93;1.30;;;25.60;36.00;;;;;;5134656;27;20098;-36
2022/05/11 09:44:23;;;;;;;10.32;1.73;;;25.60;35.70;;;;;;5136808;27;20115;-36
2022/05/11 09:46:49;;;;;;;14.27;1.98;;;25.70;35.40;;;;;;5135933;27;20019;-36
2022/05/11 09:49:24;;;;;;;15.82;1.88;;;25.80;35.30;;;;;;5135875;27;20019;-36
2022/05/11 09:51:50;;;;;;;9.10;1.38;;;26.00;35.30;;;;;;5135790;27;20449;-38
2022/05/11 09:54:38;;;;;;;14.90;1.77;;;26.00;35.10;;;;;;5136045;27;20073;-36
2022/05/11 09:57:08;;;;;;;5.95;1.23;;;26.20;34.90;;;;;;5132984;27;20098;-38
2022/05/11 09:59:39;;;;;;;8.85;1.60;;;26.30;34.80;;;;;;5135169;27;20027;-38
2022/05/11 10:02:27;;;;;;;14.80;2.00;;;26.40;34.60;;;;;;5135990;27;20015;-37
2022/05/11 10:05:03;;;;;;;6.20;1.30;;;26.40;34.50;;;;;;5135674;27;20023;-36
2022/05/11 10:07:44;;;;;;;8.23;1.60;;;26.40;34.50;;;;;;5135857;27;20027;-36
2022/05/11 10:10:32;;;;;;;10.20;1.50;;;26.50;34.40;;;;;;5120523;27;20023;-37
2022/05/11 10:13:29;;;;;;;4.60;1.40;;;26.60;34.40;;;;;;5136652;27;20014;-36
2022/05/11 10:21:53;;;;;;;9.45;2.20;;;26.60;34.20;;;;;;5136165;27;20058;-36
2022/05/11 10:24:52;;;;;;;11.63;2.22;;;26.70;34.20;;;;;;5137069;27;20055;-37
2022/05/11 10:27:43;;;;;;;5.53;1.40;;;26.80;34.20;;;;;;5138155;27;20027;-37
2022/05/11 10:30:29;;;;;;;15.98;2.08;;;26.70;34.20;;;;;;5137371;27;20049;-36
2022/05/11 10:33:18;;;;;;;9.90;1.73;;;26.70;34.20;;;;;;5137719;27;20806;-38
2022/05/11 10:35:45;;;;;;;9.82;1.55;;;26.80;34.20;;;;;;5137138;27;20072;-39
2022/05/11 10:38:20;;;;;;;9.48;1.52;;;26.80;34.20;;;;;;5138413;27;20349;-37
2022/05/11 10:40:54;;;;;;;9.25;1.73;;;26.80;34.20;;;;;;5137623;27;20377;-38
2022/05/11 10:43:41;;;;;;;7.30;1.30;;;26.80;34.70;;;;;;5137288;27;20098;-38
2022/05/11 10:46:22;;;;;;;10.95;1.42;;;26.80;34.20;;;;;;5137002;27;20023;-37
2022/05/11 10:49:11;;;;;;;8.80;1.75;;;26.80;34.10;;;;;;5135735;27;20473;-43
2022/05/11 10:51:41;;;;;;;6.20;1.33;;;26.80;34.20;;;;;;5136937;27;20101;-37
2022/05/11 10:54:16;;;;;;;;;;;26.80;34.30;;;;;;5136431;27;20022;-37
2022/05/11 10:57:23;;;;;;;4.63;1.10;;;26.80;34.40;;;;;;5135992;27;19910;-37
2022/05/11 11:00:09;;;;;;;5.88;1.10;;;26.70;34.40;;;;;;5052392;28;20040;-37
2022/05/11 11:03:00;;;;;;;8.02;1.50;;;26.70;34.40;;;;;;5052229;28;20029;-38
2022/05/11 11:07:11;;;;;;;5.90;1.13;;;26.70;34.50;;;;;;5051948;28;20025;-39
2022/05/11 11:09:01;;;;;;;8.32;1.48;;;26.70;34.60;;;;;;5052370;28;20091;-38
2022/05/11 11:11:50;;;;;;;5.72;1.17;;;26.60;34.60;;;;;;5052033;28;20879;-37
2022/05/11 11:14:20;;;;;;;13.30;1.30;;;26.60;34.70;;;;;;5037568;28;20534;-37
2022/05/11 11:16:47;;;;;;;7.45;1.67;;;26.60;34.80;;;;;;5051998;28;20021;-37
2022/05/11 11:19:13;;;;;;;10.27;1.77;;;26.50;34.80;;;;;;5051474;28;20494;-37
2022/05/11 11:21:40;;;;;;;5.43;1.30;;;26.50;34.80;;;;;;5035013;28;20503;-39
2022/05/11 11:24:13;;;;;;;5.80;1.30;;;26.50;34.90;;;;;;5035219;28;20476;-37
2022/05/11 11:26:45;;;;;;;4.90;1.35;;;26.40;34.90;;;;;;5052150;28;20049;-37
2022/05/11 11:29:11;;;;;;;6.75;1.30;;;26.40;35.20;;;;;;5051405;28;20153;-37
2022/05/11 11:31:56;;;;;;;6.70;1.30;;;26.40;35.10;;;;;;5051605;28;20488;-37
2022/05/11 11:34:25;;;;;;;8.85;1.60;;;26.30;35.10;;;;;;5063075;27;20096;-40
2022/05/11 11:36:51;;;;;;;5.78;1.35;;;26.30;35.30;;;;;;5135172;27;20438;-37
2022/05/11 11:39:44;;;;;;;6.00;1.60;;;26.20;35.40;;;;;;5135754;27;20051;-37
2022/05/11 11:42:10;;;;;;;5.43;1.58;;;26.20;35.50;;;;;;5135165;27;20437;-37
2022/05/11 11:44:45;;;;;;;6.90;1.85;;;26.10;35.60;;;;;;5134856;27;20019;-37
2022/05/11 11:47:37;;;;;;;4.78;1.40;;;26.10;35.70;;;;;;5135054;27;20080;-37
2022/05/11 11:50:03;;;;;;;7.78;1.40;;;26.10;35.70;;;;;;5131645;27;20146;-36
2022/05/11 11:52:33;;;;;;;7.15;1.33;;;26.10;35.80;;;;;;5135005;27;20011;-37
2022/05/11 11:55:00;;;;;;;8.80;1.30;;;26.00;35.80;;;;;;5135223;27;20440;-38
2022/05/11 11:57:30;;;;;;;5.60;1.05;;;26.00;36.50;;;;;;5134573;27;20457;-37
2022/05/11 12:00:02;;;;;;;5.88;1.27;;;26.00;36.00;;;;;;5135156;27;20016;-37
2022/05/11 12:02:39;;;;;;;6.57;1.33;;;25.90;36.10;;;;;;5135521;27;20015;-37
2022/05/11 12:05:22;;;;;;;6.65;1.83;;;25.90;36.10;;;;;;5135114;27;20011;-37
2022/05/11 12:16:53;;;;;;;9.73;1.50;;;25.80;36.30;;;;;;5134536;28;20533;-38
2022/05/11 12:19:18;;;;;;;7.55;1.52;;;25.70;36.40;;;;;;5135907;27;20023;-38
2022/05/11 12:21:58;;;;;;;4.45;1.08;;;25.70;36.40;;;;;;5139228;27;20085;-37
2022/05/11 12:24:35;;;;;;;6.40;1.40;;;25.60;36.40;;;;;;5137784;27;20029;-37
2022/05/11 12:27:08;;;;;;;5.93;1.30;;;25.70;37.20;;;;;;5138761;27;20489;-37
2022/05/11 12:32:32;;;;;;;4.78;1.25;;;25.50;36.70;;;;;;5138950;27;20052;-37
2022/05/11 12:35:11;;;;;;;5.07;1.33;;;25.60;36.70;;;;;;5139015;27;20011;-37
2022/05/11 12:37:37;;;;;;;3.92;1.25;;;25.60;36.70;;;;;;5138479;27;20011;-37
2022/05/11 12:40:08;;;;;;;4.82;1.45;;;25.60;36.80;;;;;;5138685;27;20019;-37
2022/05/11 12:42:41;;;;;;;4.65;1.33;;;25.60;36.80;;;;;;5138098;27;20011;-38
2022/05/11 12:45:19;;;;;;;3.70;1.60;;;25.50;36.90;;;;;;5138519;27;20022;-38
2022/05/11 12:47:47;;;;;;;5.07;1.10;;;25.50;36.90;;;;;;5136909;27;20018;-37
2022/05/11 12:50:36;;;;;;;4.88;1.25;;;25.50;36.90;;;;;;5137237;27;20046;-38
2022/05/11 12:53:01;;;;;;;6.32;1.13;;;25.40;37.00;;;;;;5138493;27;20086;-38
2022/05/11 12:55:31;;;;;;;3.22;1.00;;;25.50;37.00;;;;;;5138335;27;20100;-38
2022/05/11 12:57:57;;;;;;;6.32;1.55;;;25.50;37.00;;;;;;5137882;27;20018;-38
2022/05/11 13:00:24;;;;;;;4.43;1.55;;;25.40;37.00;;;;;;5137083;27;20030;-38
2022/05/11 13:03:21;;;;;;;4.45;1.25;;;25.40;37.00;;;;;;5138499;27;20038;-40
2022/05/11 13:05:47;;;;;;;5.13;1.00;;;25.40;37.00;;;;;;5137674;27;20015;-40
2022/05/11 13:08:14;;;;;;;4.13;1.20;;;25.40;37.00;;;;;;5136576;27;20026;-37
2022/05/11 13:10:40;;;;;;;3.42;1.17;;;25.40;37.00;;;;;;5136344;27;20020;-37
2022/05/11 13:13:12;;;;;;;5.22;1.20;;;25.40;37.00;;;;;;5136620;27;20397;-38
2022/05/11 13:15:42;;;;;;;5.95;1.40;;;25.40;37.10;;;;;;5136751;27;20090;-38
2022/05/11 13:18:11;;;;;;;3.47;1.38;;;25.40;37.10;;;;;;5136695;27;20086;-38
2022/05/11 13:20:42;;;;;;;3.23;1.27;;;25.40;37.10;;;;;;5137831;27;20034;-38
2022/05/11 13:23:19;;;;;;;4.68;1.20;;;25.40;37.10;;;;;;5136696;27;20019;-37
2022/05/11 13:25:46;;;;;;;4.55;1.33;;;25.40;37.20;;;;;;5137718;27;20011;-37
2022/05/11 13:28:22;;;;;;;3.67;1.10;;;25.40;37.20;;;;;;5137983;27;20050;-38
2022/05/11 13:30:50;;;;;;;4.53;1.10;;;25.40;37.10;;;;;;5137030;27;20103;-38
2022/05/11 13:33:28;;;;;;;3.72;1.40;;;25.40;37.20;;;;;;5137765;27;20461;-38
2022/05/11 13:36:16;;;;;;;2.88;1.20;;;25.40;37.20;;;;;;5137911;27;20015;-38
2022/05/11 13:39:13;;;;;;;4.97;1.40;;;25.40;37.20;;;;;;5138731;27;20492;-38
2022/05/11 13:41:53;;;;;;;4.22;1.30;;;25.40;37.10;;;;;;5111301;27;20038;-38